createdAt,value
2018-07-08T00:01:50.348Z,101861.19
2018-07-08T00:04:19.392Z,101858.81
2018-07-08T00:06:48.681Z,101860.72
2018-07-08T00:09:18.043Z,101864.98
2018-07-08T00:11:47.306Z,101863.02
2018-07-08T00:14:16.730Z,101869.37
2018-07-08T00:16:46.150Z,101871.63
2018-07-08T00:19:15.429Z,101866.02
2018-07-08T00:21:44.723Z,101867.46
2018-07-08T00:24:14.062Z,101870.87
2018-07-08T00:26:43.348Z,101864.95
2018-07-08T00:29:12.649Z,101863.80
2018-07-08T00:31:41.947Z,101864.22
2018-07-08T00:34:11.346Z,101858.09
2018-07-08T00:36:40.660Z,101856.09
2018-07-08T00:39:10.078Z,101857.23
2018-07-08T00:41:39.365Z,101857.37
2018-07-08T00:44:08.919Z,101858.80
2018-07-08T00:46:38.200Z,101863.02
2018-07-08T00:49:07.847Z,101868.88
2018-07-08T00:51:37.187Z,101872.30
2018-07-08T00:54:06.577Z,101871.78
2018-07-08T00:56:35.822Z,101872.25
2018-07-08T00:59:05.404Z,101867.41
2018-07-08T01:01:34.727Z,101881.17
2018-07-08T01:04:04.255Z,101875.40
2018-07-08T01:06:33.567Z,101877.95
2018-07-08T01:09:03.187Z,101878.46
2018-07-08T01:11:32.500Z,101888.24
2018-07-08T01:14:02.009Z,101885.48
2018-07-08T01:16:31.308Z,101884.69
2018-07-08T01:19:00.359Z,101879.72
2018-07-08T01:21:29.777Z,101881.13
2018-07-08T01:23:59.317Z,101883.41
2018-07-08T01:26:28.688Z,101884.98
2018-07-08T01:28:57.986Z,101888.12
2018-07-08T01:31:27.297Z,101891.84
2018-07-08T01:33:56.556Z,101895.08
2018-07-08T01:36:25.838Z,101893.57
2018-07-08T01:38:55.099Z,101895.30
2018-07-08T01:41:24.414Z,101902.55
2018-07-08T01:43:53.675Z,101906.12
2018-07-08T01:46:22.698Z,101905.88
2018-07-08T01:48:51.987Z,101904.17
2018-07-08T01:51:21.278Z,101900.11
2018-07-08T01:53:50.640Z,101904.53
2018-07-08T01:56:19.991Z,101902.70
2018-07-08T01:58:49.321Z,101910.92
2018-07-08T02:01:18.661Z,101916.34
2018-07-08T02:03:48.000Z,101919.59
2018-07-08T02:06:17.352Z,101921.09
2018-07-08T02:08:46.667Z,101920.94
2018-07-08T02:11:16.251Z,101928.41
2018-07-08T02:13:45.553Z,101934.98
2018-07-08T02:16:15.142Z,101930.07
2018-07-08T02:18:44.413Z,101932.24
2018-07-08T02:21:13.808Z,101935.44
2018-07-08T02:23:43.221Z,101936.89
2018-07-08T02:26:12.511Z,101934.77
2018-07-08T02:28:41.857Z,101937.98
2018-07-08T02:31:11.076Z,101934.98
2018-07-08T02:33:40.351Z,101938.58
2018-07-08T02:36:09.677Z,101940.25
2018-07-08T02:38:39.246Z,101944.30
2018-07-08T02:41:08.541Z,101943.30
2018-07-08T02:43:37.843Z,101943.80
2018-07-08T02:46:07.410Z,101945.81
2018-07-08T02:48:36.647Z,101953.91
2018-07-08T02:51:06.233Z,101947.59
2018-07-08T02:53:35.590Z,101949.23
2018-07-08T02:56:04.788Z,101951.11
2018-07-08T02:58:34.096Z,101948.42
2018-07-08T03:01:03.510Z,101945.05
2018-07-08T03:03:32.925Z,101947.67
2018-07-08T03:06:02.534Z,101939.80
2018-07-08T03:08:32.025Z,101935.50
2018-07-08T03:11:01.538Z,101940.77
2018-07-08T03:13:30.639Z,101938.10
2018-07-08T03:16:00.390Z,101941.34
2018-07-08T03:18:30.341Z,101942.27
2018-07-08T03:20:59.650Z,101944.34
2018-07-08T03:23:28.936Z,101946.97
2018-07-08T03:25:58.217Z,101946.91
2018-07-08T03:28:27.612Z,101941.61
2018-07-08T03:30:56.940Z,101947.05
2018-07-08T03:33:26.214Z,101939.75
2018-07-08T03:35:55.514Z,101948.11
2018-07-08T03:38:24.787Z,101952.61
2018-07-08T03:40:54.133Z,101951.67
2018-07-08T03:43:23.449Z,101949.99
2018-07-08T03:45:52.753Z,101949.16
2018-07-08T03:48:22.091Z,101954.97
2018-07-08T03:50:51.353Z,101959.97
2018-07-08T03:53:20.654Z,101961.33
2018-07-08T03:55:50.008Z,101965.65
2018-07-08T03:58:19.325Z,101963.70
2018-07-08T04:00:48.589Z,101970.45
2018-07-08T04:03:17.928Z,101967.88
2018-07-08T04:05:47.209Z,101968.95
2018-07-08T04:08:16.533Z,101967.15
2018-07-08T04:10:45.803Z,101966.78
2018-07-08T04:13:15.120Z,101968.70
2018-07-08T04:15:44.455Z,101966.09
2018-07-08T04:18:13.704Z,101966.34
2018-07-08T04:20:42.993Z,101971.43
2018-07-08T04:23:12.263Z,101965.39
2018-07-08T04:25:41.532Z,101964.74
2018-07-08T04:28:10.817Z,101961.14
2018-07-08T04:30:40.119Z,101959.47
2018-07-08T04:33:09.412Z,101968.28
2018-07-08T04:35:38.754Z,101967.15
2018-07-08T04:38:08.172Z,101979.08
2018-07-08T04:40:37.430Z,101979.52
2018-07-08T04:43:06.792Z,101994.11
2018-07-08T04:45:36.047Z,101991.70
2018-07-08T04:48:05.378Z,101993.45
2018-07-08T04:50:34.643Z,101999.14
2018-07-08T04:53:04.057Z,101998.13
2018-07-08T04:55:33.383Z,102001.60
2018-07-08T04:58:02.761Z,102001.60
2018-07-08T05:00:32.229Z,102002.63
2018-07-08T05:03:01.527Z,102009.73
2018-07-08T05:05:30.827Z,102006.80
2018-07-08T05:08:00.206Z,102012.72
2018-07-08T05:10:29.535Z,102013.41
2018-07-08T05:12:58.864Z,102014.50
2018-07-08T05:15:28.294Z,102012.21
2018-07-08T05:17:57.567Z,102013.18
2018-07-08T05:20:26.947Z,102009.52
2018-07-08T05:22:56.182Z,102008.39
2018-07-08T05:25:25.499Z,102011.92
2018-07-08T05:27:54.757Z,102011.80
2018-07-08T05:30:24.046Z,102014.05
2018-07-08T05:32:53.433Z,102016.95
2018-07-08T05:35:22.689Z,102014.33
2018-07-08T05:37:51.936Z,102019.96
2018-07-08T05:40:21.239Z,102018.58
2018-07-08T05:42:50.552Z,102019.94
2018-07-08T05:45:19.943Z,102016.16
2018-07-08T05:47:49.257Z,102014.98
2018-07-08T05:50:18.631Z,102013.15
2018-07-08T05:52:47.961Z,102011.70
2018-07-08T05:55:17.266Z,102004.42
2018-07-08T05:57:46.510Z,102002.36
2018-07-08T06:00:15.829Z,102001.44
2018-07-08T06:02:45.079Z,101995.09
2018-07-08T06:05:14.339Z,102001.67
2018-07-08T06:07:43.671Z,101997.78
2018-07-08T06:10:12.899Z,101996.30
2018-07-08T06:12:42.227Z,102000.05
2018-07-08T06:15:11.478Z,101995.05
2018-07-08T06:17:40.773Z,101996.30
2018-07-08T06:20:11.825Z,101991.27
2018-07-08T06:22:41.151Z,101990.95
2018-07-08T06:25:10.434Z,101997.08
2018-07-08T06:27:39.733Z,101999.16
2018-07-08T06:30:08.732Z,101992.19
2018-07-08T06:32:38.061Z,101993.28
2018-07-08T06:35:07.088Z,101992.77
2018-07-08T06:37:36.322Z,101988.88
2018-07-08T06:40:05.635Z,101998.48
2018-07-08T06:42:35.026Z,102001.73
2018-07-08T06:45:04.423Z,101998.24
2018-07-08T06:47:33.888Z,101993.95
2018-07-08T06:50:03.743Z,101990.27
2018-07-08T06:52:33.305Z,101995.72
2018-07-08T06:55:02.823Z,101987.42
2018-07-08T06:57:32.151Z,101989.91
2018-07-08T07:00:01.605Z,101996.05
2018-07-08T07:02:30.951Z,101990.83
2018-07-08T07:05:00.366Z,101995.14
2018-07-08T07:07:29.704Z,101997.66
2018-07-08T07:09:59.051Z,101996.52
2018-07-08T07:12:28.314Z,101998.70
2018-07-08T07:14:57.649Z,102001.63
2018-07-08T07:17:26.994Z,102014.52
2018-07-08T07:19:56.182Z,102003.75
2018-07-08T07:22:25.594Z,101994.05
2018-07-08T07:24:55.004Z,102001.55
2018-07-08T07:27:24.389Z,101992.24
2018-07-08T07:29:53.665Z,101988.78
2018-07-08T07:32:23.067Z,101993.16
2018-07-08T07:34:52.469Z,101992.50
2018-07-08T07:37:21.816Z,101989.16
2018-07-08T07:39:50.995Z,101994.67
2018-07-08T07:42:20.274Z,101992.66
2018-07-08T07:44:49.637Z,102000.27
2018-07-08T07:47:18.935Z,101993.90
2018-07-08T07:49:48.237Z,101995.32
2018-07-08T07:52:17.262Z,101989.52
2018-07-08T07:54:46.678Z,101979.84
2018-07-08T07:57:15.979Z,101985.70
2018-07-08T07:59:45.309Z,101983.45
2018-07-08T08:02:14.641Z,101988.63
2018-07-08T08:04:44.039Z,101986.39
2018-07-08T08:07:13.294Z,101998.86
2018-07-08T08:09:42.578Z,101995.90
2018-07-08T08:12:11.866Z,101998.16
2018-07-08T08:14:41.317Z,101990.61
2018-07-08T08:17:10.610Z,101997.23
2018-07-08T08:19:40.408Z,101995.95
2018-07-08T08:22:09.658Z,102001.19
2018-07-08T08:24:38.922Z,101992.67
2018-07-08T08:27:08.231Z,102002.54
2018-07-08T08:29:37.591Z,102000.23
2018-07-08T08:32:06.886Z,102001.47
2018-07-08T08:34:53.010Z,102000.47
2018-07-08T08:37:23.163Z,102001.89
2018-07-08T08:39:54.111Z,102000.18
2018-07-08T08:42:23.601Z,101986.41
2018-07-08T08:44:53.991Z,101993.14
2018-07-08T08:47:23.785Z,101995.48
2018-07-08T08:49:53.619Z,101988.83
2018-07-08T08:52:23.046Z,101990.75
2018-07-08T08:54:52.549Z,101997.75
2018-07-08T08:57:21.857Z,101991.73
2018-07-08T08:59:51.218Z,101991.33
2018-07-08T09:02:20.502Z,101996.86
2018-07-08T09:04:49.922Z,101996.35
2018-07-08T09:07:20.171Z,101992.29
2018-07-08T09:09:49.508Z,102003.45
2018-07-08T09:12:18.878Z,101995.84
2018-07-08T09:14:48.161Z,101992.69
2018-07-08T09:17:17.575Z,101990.84
2018-07-08T09:19:46.915Z,101992.41
2018-07-08T09:22:16.335Z,101990.05
2018-07-08T09:24:45.686Z,101987.79
2018-07-08T09:27:14.989Z,101981.76
2018-07-08T09:29:44.379Z,101980.62
2018-07-08T09:32:13.680Z,101972.52
2018-07-08T09:34:43.058Z,101986.94
2018-07-08T09:37:12.395Z,101981.16
2018-07-08T09:39:41.710Z,101985.47
2018-07-08T09:42:13.284Z,101984.42
2018-07-08T09:44:42.715Z,101988.02
2018-07-08T09:47:12.063Z,101986.51
2018-07-08T09:49:41.426Z,101990.88
2018-07-08T09:52:11.326Z,101980.24
2018-07-08T09:54:40.719Z,101983.67
2018-07-08T09:57:10.003Z,101979.11
2018-07-08T09:59:39.429Z,101977.31
2018-07-08T10:02:08.825Z,101974.28
2018-07-08T10:04:38.298Z,101978.29
2018-07-08T10:07:09.206Z,101979.27
2018-07-08T10:09:38.496Z,101976.25
2018-07-08T10:12:07.732Z,101967.42
2018-07-08T10:14:36.978Z,101974.08
2018-07-08T10:17:06.354Z,101966.46
2018-07-08T10:19:35.870Z,101969.15
2018-07-08T10:22:05.105Z,101967.90
2018-07-08T10:24:34.372Z,101962.11
2018-07-08T10:27:54.035Z,101965.09
2018-07-08T10:30:23.383Z,101963.33
2018-07-08T10:32:52.755Z,101965.92
2018-07-08T10:35:38.864Z,101960.38
2018-07-08T10:38:09.247Z,101954.92
2018-07-08T10:40:38.725Z,101965.77
2018-07-08T10:43:08.166Z,101966.13
2018-07-08T10:45:37.449Z,101965.02
2018-07-08T10:48:06.797Z,101961.89
2018-07-08T10:50:36.100Z,101960.20
2018-07-08T10:53:05.490Z,101963.96
2018-07-08T10:55:34.611Z,101960.84
2018-07-08T10:58:03.923Z,101961.02
2018-07-08T11:00:33.406Z,101964.91
2018-07-08T11:03:02.943Z,101965.34
2018-07-08T11:05:32.288Z,101957.44
2018-07-08T11:08:01.795Z,101952.50
2018-07-08T11:10:31.367Z,101954.71
2018-07-08T11:13:00.715Z,101952.45
2018-07-08T11:15:30.448Z,101941.06
2018-07-08T11:17:59.746Z,101934.09
2018-07-08T11:20:29.125Z,101934.07
2018-07-08T11:22:58.472Z,101931.34
2018-07-08T11:25:27.819Z,101931.89
2018-07-08T11:27:57.147Z,101929.43
2018-07-08T11:30:26.545Z,101914.42
2018-07-08T11:32:55.887Z,101918.58
2018-07-08T11:35:25.189Z,101922.27
2018-07-08T11:37:54.487Z,101919.09
2018-07-08T11:40:23.699Z,101920.78
2018-07-08T11:42:53.061Z,101909.91
2018-07-08T11:45:22.269Z,101912.89
2018-07-08T11:47:51.635Z,101914.09
2018-07-08T11:50:20.687Z,101918.17
2018-07-08T11:52:50.028Z,101910.75
2018-07-08T11:55:19.322Z,101909.13
2018-07-08T11:57:49.023Z,101905.83
2018-07-08T12:00:18.421Z,101894.66
2018-07-08T12:02:47.743Z,101906.52
2018-07-08T12:05:17.159Z,101907.51
2018-07-08T12:07:46.496Z,101904.69
2018-07-08T12:10:15.781Z,101902.25
2018-07-08T12:12:45.110Z,101900.52
2018-07-08T12:15:14.382Z,101910.09
2018-07-08T12:17:44.032Z,101903.89
2018-07-08T12:20:13.395Z,101905.54
2018-07-08T12:22:42.585Z,101904.69
2018-07-08T12:25:11.861Z,101906.03
2018-07-08T12:27:41.161Z,101897.41
2018-07-08T12:30:10.500Z,101894.41
2018-07-08T12:32:39.759Z,101898.69
2018-07-08T12:35:09.044Z,101900.48
2018-07-08T12:37:38.538Z,101904.19
2018-07-08T12:40:07.920Z,101886.88
2018-07-08T12:42:37.198Z,101883.20
2018-07-08T12:45:06.492Z,101882.73
2018-07-08T12:47:35.812Z,101887.18
2018-07-08T12:50:05.133Z,101876.44
2018-07-08T12:52:34.495Z,101874.75
2018-07-08T12:55:03.911Z,101877.34
2018-07-08T12:57:33.440Z,101874.19
2018-07-08T13:00:02.982Z,101865.55
2018-07-08T13:02:32.418Z,101863.64
2018-07-08T13:05:01.841Z,101861.70
2018-07-08T13:07:31.321Z,101867.34
2018-07-08T13:10:00.658Z,101871.73
2018-07-08T13:12:30.086Z,101860.63
2018-07-08T13:14:59.367Z,101863.11
2018-07-08T13:17:28.750Z,101870.48
2018-07-08T13:19:58.092Z,101866.12
2018-07-08T13:22:27.444Z,101866.57
2018-07-08T13:24:56.744Z,101859.67
2018-07-08T13:27:26.017Z,101859.60
2018-07-08T13:29:55.307Z,101859.06
2018-07-08T13:32:24.629Z,101857.59
2018-07-08T13:34:53.905Z,101855.38
2018-07-08T13:37:23.153Z,101853.89
2018-07-08T13:39:52.596Z,101860.30
2018-07-08T13:42:21.934Z,101853.75
2018-07-08T13:44:51.188Z,101851.06
2018-07-08T13:47:20.535Z,101847.59
2018-07-08T13:49:49.833Z,101850.02
2018-07-08T13:52:19.181Z,101854.00
2018-07-08T13:54:48.628Z,101854.26
2018-07-08T13:57:18.046Z,101854.47
2018-07-08T13:59:47.482Z,101848.12
2018-07-08T14:02:16.867Z,101845.22
2018-07-08T14:04:46.187Z,101834.63
2018-07-08T14:07:15.462Z,101841.88
2018-07-08T14:09:44.831Z,101841.98
2018-07-08T14:12:14.136Z,101838.28
2018-07-08T14:14:43.636Z,101843.37
2018-07-08T14:17:12.905Z,101845.33
2018-07-08T14:19:42.214Z,101838.22
2018-07-08T14:25:09.083Z,101828.77
2018-07-08T14:27:38.392Z,101832.86
2018-07-08T14:30:07.674Z,101826.34
2018-07-08T14:32:37.241Z,101828.83
2018-07-08T14:35:06.947Z,101814.30
2018-07-08T14:37:36.279Z,101819.91
2018-07-08T14:40:05.679Z,101817.61
2018-07-08T14:42:34.916Z,101819.16
2018-07-08T14:45:04.239Z,101806.28
2018-07-08T14:47:33.587Z,101804.41
2018-07-08T14:52:59.737Z,101812.73
2018-07-08T14:55:29.117Z,101810.20
2018-07-08T14:57:58.125Z,101809.89
2018-07-08T15:00:27.509Z,101812.02
2018-07-08T15:02:56.907Z,101804.48
2018-07-08T15:05:26.239Z,101791.88
2018-07-08T15:07:55.533Z,101789.34
2018-07-08T15:10:24.796Z,101795.45
2018-07-08T15:12:54.109Z,101800.79
2018-07-08T15:15:23.534Z,101798.55
2018-07-08T15:17:52.823Z,101790.23
2018-07-08T15:20:22.151Z,101792.06
2018-07-08T15:22:51.593Z,101795.31
2018-07-08T15:25:20.887Z,101789.61
2018-07-08T15:27:50.135Z,101798.17
2018-07-08T15:30:19.540Z,101802.05
2018-07-08T15:32:48.845Z,101795.45
2018-07-08T15:35:18.119Z,101795.31
2018-07-08T15:37:47.397Z,101795.91
2018-07-08T15:40:16.694Z,101797.05
2018-07-08T15:42:46.278Z,101789.58
2018-07-08T15:45:15.623Z,101789.36
2018-07-08T15:47:44.923Z,101785.47
2018-07-08T15:50:15.432Z,101787.72
2018-07-08T15:52:44.663Z,101785.19
2018-07-08T15:55:13.925Z,101776.78
2018-07-08T15:57:43.188Z,101779.75
2018-07-08T16:00:12.446Z,101767.92
2018-07-08T16:02:41.745Z,101783.59
2018-07-08T16:05:11.059Z,101782.56
2018-07-08T16:07:40.278Z,101783.96
2018-07-08T16:10:09.768Z,101777.76
2018-07-08T16:12:39.089Z,101770.09
2018-07-08T16:15:09.157Z,101770.70
2018-07-08T16:17:38.433Z,101774.48
2018-07-08T16:20:07.709Z,101766.35
2018-07-08T16:22:37.062Z,101766.85
2018-07-08T16:25:06.307Z,101781.52
2018-07-08T16:27:35.714Z,101770.97
2018-07-08T16:30:05.346Z,101773.15
2018-07-08T16:32:34.660Z,101765.12
2018-07-08T16:35:04.042Z,101770.34
2018-07-08T16:37:33.563Z,101767.06
2018-07-08T16:40:02.942Z,101763.55
2018-07-08T16:42:32.483Z,101768.36
2018-07-08T16:45:01.850Z,101774.78
2018-07-08T16:47:31.184Z,101771.36
2018-07-08T16:50:00.692Z,101766.40
2018-07-08T16:52:30.045Z,101770.27
2018-07-08T16:54:59.374Z,101766.73
2018-07-08T16:57:28.766Z,101772.93
2018-07-08T16:59:58.193Z,101768.06
2018-07-08T17:02:27.616Z,101774.27
2018-07-08T17:04:56.989Z,101770.48
2018-07-08T17:07:26.378Z,101764.62
2018-07-08T17:09:55.864Z,101765.73
2018-07-08T17:12:24.993Z,101769.09
2018-07-08T17:14:54.279Z,101763.98
2018-07-08T17:17:23.367Z,101767.16
2018-07-08T17:19:52.777Z,101762.17
2018-07-08T17:22:22.335Z,101762.55
2018-07-08T17:24:51.687Z,101765.91
2018-07-08T17:27:21.102Z,101761.72
2018-07-08T17:29:50.607Z,101758.80
2018-07-08T17:32:19.834Z,101756.73
2018-07-08T17:34:49.155Z,101755.48
2018-07-08T17:37:18.668Z,101753.04
2018-07-08T17:39:47.963Z,101755.36
2018-07-08T17:42:17.381Z,101756.13
2018-07-08T17:44:47.034Z,101754.14
2018-07-08T17:47:16.421Z,101756.06
2018-07-08T17:49:45.740Z,101755.55
2018-07-08T17:52:15.014Z,101751.55
2018-07-08T17:54:44.301Z,101757.35
2018-07-08T17:57:13.586Z,101755.93
2018-07-08T17:59:42.948Z,101754.89
2018-07-08T18:02:12.267Z,101753.75
2018-07-08T18:04:41.739Z,101759.09
2018-07-08T18:07:11.077Z,101756.69
2018-07-08T18:09:40.452Z,101761.33
2018-07-08T18:12:09.717Z,101762.95
2018-07-08T18:14:39.018Z,101762.37
2018-07-08T18:17:08.315Z,101760.92
2018-07-08T18:19:37.716Z,101762.45
2018-07-08T18:22:07.221Z,101762.03
2018-07-08T18:24:36.583Z,101759.51
2018-07-08T18:27:05.926Z,101748.78
2018-07-08T18:29:35.233Z,101753.95
2018-07-08T18:32:04.710Z,101752.71
2018-07-08T18:34:34.210Z,101750.77
2018-07-08T18:37:03.604Z,101760.88
2018-07-08T18:39:33.151Z,101758.22
2018-07-08T18:42:02.540Z,101759.02
2018-07-08T18:44:31.887Z,101763.54
2018-07-08T18:47:01.535Z,101761.47
2018-07-08T18:49:31.283Z,101759.54
2018-07-08T18:52:00.718Z,101758.61
2018-07-08T18:54:30.018Z,101756.80
2018-07-08T18:56:59.347Z,101759.14
2018-07-08T18:59:29.331Z,101757.11
2018-07-08T19:01:58.850Z,101765.37
2018-07-08T19:04:28.709Z,101763.02
2018-07-08T19:06:58.121Z,101766.35
2018-07-08T19:09:27.427Z,101770.19
2018-07-08T19:11:56.770Z,101770.02
2018-07-08T19:14:26.227Z,101770.73
2018-07-08T19:16:55.631Z,101772.95
2018-07-08T19:19:25.043Z,101779.63
2018-07-08T19:21:54.401Z,101776.44
2018-07-08T19:24:23.807Z,101771.31
2018-07-08T19:26:53.094Z,101780.28
2018-07-08T19:29:22.393Z,101778.29
2018-07-08T19:31:51.754Z,101773.46
2018-07-08T19:34:21.195Z,101783.34
2018-07-08T19:36:50.555Z,101778.44
2018-07-08T19:39:19.880Z,101780.41
2018-07-08T19:41:49.523Z,101781.67
2018-07-08T19:44:19.648Z,101780.70
2018-07-08T19:46:49.031Z,101783.64
2018-07-08T19:49:18.430Z,101791.86
2018-07-08T19:51:47.720Z,101794.12
2018-07-08T19:54:17.190Z,101793.59
2018-07-08T19:56:46.489Z,101793.77
2018-07-08T19:59:15.867Z,101803.53
2018-07-08T20:01:45.303Z,101803.81
2018-07-08T20:04:14.723Z,101805.72
2018-07-08T20:06:43.993Z,101811.31
2018-07-08T20:09:13.380Z,101812.93
2018-07-08T20:11:43.097Z,101813.11
2018-07-08T20:14:12.531Z,101805.15
2018-07-08T20:16:42.144Z,101812.72
2018-07-08T20:19:11.250Z,101815.66
2018-07-08T20:21:41.429Z,101812.42
2018-07-08T20:24:10.834Z,101814.80
2018-07-08T20:26:40.122Z,101819.80
2018-07-08T20:29:09.377Z,101818.56
2018-07-08T20:31:38.846Z,101823.48
2018-07-08T20:34:08.103Z,101823.02
2018-07-08T20:36:37.483Z,101825.09
2018-07-08T20:39:07.920Z,101830.09
2018-07-08T20:41:37.542Z,101827.46
2018-07-08T20:44:12.771Z,101830.78
2018-07-08T20:46:42.056Z,101831.48
2018-07-08T20:49:11.335Z,101836.19
2018-07-08T20:51:41.045Z,101830.09
2018-07-08T20:54:10.293Z,101837.36
2018-07-08T20:56:39.568Z,101829.42
2018-07-08T20:59:08.891Z,101833.87
2018-07-08T21:01:38.335Z,101828.88
2018-07-08T21:04:07.779Z,101832.25
2018-07-08T21:06:37.146Z,101837.65
2018-07-08T21:09:06.520Z,101832.34
2018-07-08T21:11:36.149Z,101836.59
2018-07-08T21:14:05.349Z,101836.00
2018-07-08T21:16:34.807Z,101840.14
2018-07-08T21:19:05.135Z,101845.30
2018-07-08T21:21:34.542Z,101848.08
2018-07-08T21:24:04.900Z,101846.59
2018-07-08T21:26:34.529Z,101848.31
2018-07-08T21:29:04.092Z,101844.72
2018-07-08T21:31:33.543Z,101852.16
2018-07-08T21:34:03.097Z,101851.37
2018-07-08T21:36:32.615Z,101858.67
2018-07-08T21:39:02.069Z,101855.31
2018-07-08T21:41:31.918Z,101863.05
2018-07-08T21:44:01.770Z,101857.80
2018-07-08T21:46:31.338Z,101852.00
2018-07-08T21:49:00.735Z,101855.41
2018-07-08T21:51:30.362Z,101854.00
2018-07-08T21:53:59.828Z,101854.22
2018-07-08T21:56:29.170Z,101852.03
2018-07-08T21:58:59.177Z,101854.37
2018-07-08T22:01:31.616Z,101850.50
2018-07-08T22:04:01.196Z,101855.50
2018-07-08T22:06:30.484Z,101852.89
2018-07-08T22:09:00.020Z,101859.61
2018-07-08T22:11:29.310Z,101859.24
2018-07-08T22:13:58.622Z,101852.16
2018-07-08T22:16:27.961Z,101854.66
2018-07-08T22:18:57.357Z,101862.72
2018-07-08T22:21:26.609Z,101862.96
2018-07-08T22:23:55.867Z,101859.81
2018-07-08T22:26:25.219Z,101866.05
2018-07-08T22:28:54.657Z,101865.16
2018-07-08T22:31:23.660Z,101863.70
2018-07-08T22:33:52.766Z,101863.89
2018-07-08T22:36:22.191Z,101859.55
2018-07-08T22:38:51.641Z,101861.72
2018-07-08T22:41:20.933Z,101860.41
2018-07-08T22:43:50.475Z,101862.35
2018-07-08T22:46:19.867Z,101860.16
2018-07-08T22:48:53.975Z,101858.00
2018-07-08T22:51:23.273Z,101862.20
2018-07-08T22:53:52.711Z,101851.17
2018-07-08T22:56:22.038Z,101858.32
2018-07-08T22:58:51.411Z,101854.73
2018-07-08T23:01:37.962Z,101852.69
2018-07-08T23:04:07.595Z,101854.08
2018-07-08T23:06:37.025Z,101859.73
2018-07-08T23:09:06.872Z,101863.34
2018-07-08T23:11:36.123Z,101868.83
2018-07-08T23:14:05.186Z,101867.73
2018-07-08T23:16:34.573Z,101863.09
2018-07-08T23:19:03.883Z,101860.13
2018-07-08T23:21:33.190Z,101862.75
2018-07-08T23:24:02.598Z,101863.30
2018-07-08T23:26:31.991Z,101860.81
2018-07-08T23:29:01.471Z,101855.08
2018-07-08T23:31:30.768Z,101860.11
2018-07-08T23:34:00.152Z,101863.89
2018-07-08T23:36:29.581Z,101865.96
2018-07-08T23:38:58.894Z,101858.74
2018-07-08T23:41:28.224Z,101856.70
2018-07-08T23:43:57.539Z,101862.00
2018-07-08T23:46:26.917Z,101865.98
2018-07-08T23:48:56.209Z,101867.50
2018-07-08T23:51:25.455Z,101867.09
2018-07-08T23:53:54.761Z,101864.67
2018-07-08T23:56:24.052Z,101864.08
2018-07-08T23:58:53.477Z,101865.50
